createdAt,value
2018-01-06T00:00:18.516Z,98982
2018-01-06T00:01:18.532Z,98974
2018-01-06T00:02:19.607Z,98979
2018-01-06T00:03:18.527Z,98973
2018-01-06T00:04:18.537Z,98986
2018-01-06T00:05:18.584Z,98979
2018-01-06T00:06:18.823Z,98981
2018-01-06T00:07:19.688Z,98975
2018-01-06T00:08:18.798Z,98982
2018-01-06T00:09:18.888Z,98975
2018-01-06T00:10:19.054Z,98984
2018-01-06T00:11:18.956Z,98982
2018-01-06T00:12:19.082Z,98983
2018-01-06T00:13:19.153Z,98980
2018-01-06T00:14:19.245Z,98983
2018-01-06T00:15:19.274Z,98979
2018-01-06T00:16:19.349Z,98986
2018-01-06T00:17:20.442Z,98985
2018-01-06T00:18:19.488Z,98992
2018-01-06T00:19:19.395Z,98993
2018-01-06T00:20:20.461Z,98986
2018-01-06T00:21:19.592Z,98989
2018-01-06T00:22:20.665Z,98985
2018-01-06T00:23:19.633Z,98990
2018-01-06T00:24:19.851Z,98989
2018-01-06T00:25:19.916Z,98989
2018-01-06T00:26:20.977Z,98994
2018-01-06T00:27:20.060Z,99002
2018-01-06T00:28:20.139Z,98994
2018-01-06T00:29:20.067Z,98990
2018-01-06T00:30:20.223Z,98998
2018-01-06T00:31:20.313Z,99000
2018-01-06T00:32:21.330Z,98999
2018-01-06T00:33:21.347Z,99000
2018-01-06T00:34:21.273Z,98992
2018-01-06T00:35:21.391Z,98999
2018-01-06T00:36:20.526Z,98998
2018-01-06T00:37:21.397Z,99003
2018-01-06T00:38:20.427Z,99006
2018-01-06T00:39:20.543Z,99009
2018-01-06T00:40:20.485Z,99010
2018-01-06T00:41:21.545Z,99010
2018-01-06T00:42:20.634Z,99013
2018-01-06T00:43:20.658Z,99016
2018-01-06T00:44:21.779Z,99015
2018-01-06T00:45:21.856Z,99010
2018-01-06T00:46:20.853Z,99015
2018-01-06T00:47:20.970Z,99010
2018-01-06T00:48:21.994Z,99015
2018-01-06T00:49:21.049Z,99013
2018-01-06T00:50:21.054Z,99018
2018-01-06T00:51:22.038Z,99012
2018-01-06T00:52:21.149Z,99013
2018-01-06T00:53:21.104Z,99010
2018-01-06T00:54:21.204Z,99013
2018-01-06T00:55:21.245Z,99012
2018-01-06T00:56:21.161Z,99005
2018-01-06T00:57:21.170Z,99013
2018-01-06T00:58:22.215Z,99012
2018-01-06T00:59:21.277Z,99014
2018-01-06T01:00:21.328Z,99012
2018-01-06T01:01:22.323Z,99012
2018-01-06T01:02:22.367Z,99010
2018-01-06T01:03:22.445Z,99000
2018-01-06T01:04:21.408Z,99010
2018-01-06T01:05:22.539Z,99005
2018-01-06T01:06:21.445Z,99012
2018-01-06T01:07:21.497Z,99010
2018-01-06T01:08:22.652Z,99009
2018-01-06T01:09:22.756Z,99008
2018-01-06T01:10:21.782Z,98996
2018-01-06T01:11:22.922Z,99003
2018-01-06T01:12:21.897Z,99000
2018-01-06T01:13:23.078Z,99010
2018-01-06T01:14:22.157Z,99001
2018-01-06T01:15:22.061Z,99010
2018-01-06T01:16:22.194Z,99009
2018-01-06T01:17:23.270Z,99010
2018-01-06T01:18:23.338Z,99016
2018-01-06T01:19:22.334Z,99016
2018-01-06T01:20:22.360Z,99019
2018-01-06T01:21:23.381Z,99020
2018-01-06T01:22:23.545Z,99016
2018-01-06T01:23:22.527Z,99020
2018-01-06T01:24:23.680Z,99012
2018-01-06T01:25:23.589Z,99021
2018-01-06T01:26:23.794Z,99013
2018-01-06T01:27:22.817Z,99020
2018-01-06T01:28:23.753Z,99019
2018-01-06T01:29:22.970Z,99015
2018-01-06T01:30:23.024Z,99024
2018-01-06T01:31:23.050Z,99025
2018-01-06T01:32:23.137Z,99026
2018-01-06T01:33:24.092Z,99026
2018-01-06T01:34:23.108Z,99031
2018-01-06T01:35:24.297Z,99031
2018-01-06T01:36:24.268Z,99030
2018-01-06T01:37:24.420Z,99031
2018-01-06T01:38:23.350Z,99036
2018-01-06T01:39:23.400Z,99037
2018-01-06T01:40:23.430Z,99041
2018-01-06T01:41:24.436Z,99037
2018-01-06T01:42:23.501Z,99042
2018-01-06T01:43:24.626Z,99044
2018-01-06T01:44:23.644Z,99042
2018-01-06T01:45:23.671Z,99039
2018-01-06T01:46:23.722Z,99040
2018-01-06T01:47:23.674Z,99039
2018-01-06T01:48:23.809Z,99046
2018-01-06T01:49:24.821Z,99049
2018-01-06T01:50:23.801Z,99042
2018-01-06T01:51:24.918Z,99041
2018-01-06T01:52:23.949Z,99044
2018-01-06T01:53:24.983Z,99045
2018-01-06T01:54:23.924Z,99048
2018-01-06T01:55:24.042Z,99052
2018-01-06T01:56:25.039Z,99053
2018-01-06T01:57:25.077Z,99050
2018-01-06T01:58:24.146Z,99054
2018-01-06T01:59:25.017Z,99051
2018-01-06T02:00:24.209Z,99045
2018-01-06T02:01:25.177Z,99054
2018-01-06T02:02:24.214Z,99052
2018-01-06T02:03:25.377Z,99053
2018-01-06T02:04:24.389Z,99056
2018-01-06T02:05:25.509Z,99055
2018-01-06T02:06:24.479Z,99055
2018-01-06T02:07:24.696Z,99056
2018-01-06T02:08:24.588Z,99060
2018-01-06T02:09:24.651Z,99054
2018-01-06T02:10:24.664Z,99061
2018-01-06T02:11:25.775Z,99057
2018-01-06T02:12:24.834Z,99057
2018-01-06T02:13:25.837Z,99063
2018-01-06T02:14:24.975Z,99064
2018-01-06T02:15:26.037Z,99056
2018-01-06T02:16:25.095Z,99068
2018-01-06T02:17:25.973Z,99067
2018-01-06T02:18:26.154Z,99071
2018-01-06T02:19:25.162Z,99071
2018-01-06T02:20:26.328Z,99058
2018-01-06T02:21:25.370Z,99070
2018-01-06T02:22:25.352Z,99073
2018-01-06T02:23:25.378Z,99069
2018-01-06T02:24:26.435Z,99070
2018-01-06T02:25:26.583Z,99076
2018-01-06T02:26:25.538Z,99077
2018-01-06T02:27:26.598Z,99076
2018-01-06T02:28:25.579Z,99079
2018-01-06T02:29:26.554Z,99085
2018-01-06T02:30:25.760Z,99083
2018-01-06T02:31:25.701Z,99076
2018-01-06T02:32:25.737Z,99081
2018-01-06T02:33:25.865Z,99078
2018-01-06T02:34:25.898Z,99079
2018-01-06T02:35:25.964Z,99077
2018-01-06T02:36:25.876Z,99079
2018-01-06T02:37:26.940Z,99076
2018-01-06T02:38:26.051Z,99079
2018-01-06T02:39:27.173Z,99079
2018-01-06T02:40:26.178Z,99078
2018-01-06T02:41:26.239Z,99078
2018-01-06T02:42:26.308Z,99075
2018-01-06T02:43:27.421Z,99067
2018-01-06T02:44:26.353Z,99076
2018-01-06T02:45:26.444Z,99073
2018-01-06T02:46:26.454Z,99066
2018-01-06T02:47:26.633Z,99075
2018-01-06T02:48:27.676Z,99075
2018-01-06T02:49:27.739Z,99079
2018-01-06T02:50:26.771Z,99081
2018-01-06T02:51:26.732Z,99084
2018-01-06T02:52:26.839Z,99086
2018-01-06T02:53:26.851Z,99091
2018-01-06T02:54:26.952Z,99090
2018-01-06T02:55:27.978Z,99089
2018-01-06T02:56:26.944Z,99096
2018-01-06T02:57:27.925Z,99094
2018-01-06T02:58:27.130Z,99101
2018-01-06T02:59:27.190Z,99098
2018-01-06T03:00:27.238Z,99094
2018-01-06T03:01:28.268Z,99103
2018-01-06T03:02:28.284Z,99098
2018-01-06T03:03:27.328Z,99096
2018-01-06T03:04:27.241Z,99102
2018-01-06T03:46:49.021Z,99104
2018-01-06T03:47:50.019Z,99107
2018-01-06T03:48:49.059Z,99112
2018-01-06T03:49:50.065Z,99113
2018-01-06T03:50:49.986Z,99112
2018-01-06T03:51:49.104Z,99118
2018-01-06T03:52:49.164Z,99115
2018-01-06T03:53:50.211Z,99117
2018-01-06T03:54:50.364Z,99119
2018-01-06T03:55:50.312Z,99121
2018-01-06T03:56:49.393Z,99113
2018-01-06T03:57:49.509Z,99120
2018-01-06T03:58:50.454Z,99119
2018-01-06T03:59:49.554Z,99112
2018-01-06T04:00:49.736Z,99112
2018-01-06T04:01:49.662Z,99114
2018-01-06T04:02:49.667Z,99109
2018-01-06T04:03:50.821Z,99112
2018-01-06T04:04:50.841Z,99114
2018-01-06T04:05:49.824Z,99103
2018-01-06T04:06:49.939Z,99114
2018-01-06T04:07:50.076Z,99110
2018-01-06T04:08:51.039Z,99118
2018-01-06T04:09:51.100Z,99120
2018-01-06T04:10:50.062Z,99124
2018-01-06T04:11:51.165Z,99120
2018-01-06T04:12:50.176Z,99119
2018-01-06T04:13:51.315Z,99117
2018-01-06T04:14:51.358Z,99113
2018-01-06T04:15:51.469Z,99112
2018-01-06T04:16:50.518Z,99115
2018-01-06T04:17:50.467Z,99109
2018-01-06T04:18:51.567Z,99114
2018-01-06T04:19:50.584Z,99116
2018-01-06T04:20:51.602Z,99111
2018-01-06T04:21:50.606Z,99115
2018-01-06T04:22:50.638Z,99120
2018-01-06T04:23:50.744Z,99121
2018-01-06T04:24:51.685Z,99121
2018-01-06T04:25:51.838Z,99121
2018-01-06T04:26:50.762Z,99118
2018-01-06T04:27:51.813Z,99118
2018-01-06T04:28:51.842Z,99117
2018-01-06T04:29:51.933Z,99120
2018-01-06T04:30:51.001Z,99123
2018-01-06T04:31:52.121Z,99116
2018-01-06T04:32:51.157Z,99126
2018-01-06T04:33:51.148Z,99124
2018-01-06T04:34:52.119Z,99117
2018-01-06T04:35:52.283Z,99123
2018-01-06T04:36:51.273Z,99122
2018-01-06T04:37:51.377Z,99126
2018-01-06T04:38:52.388Z,99128
2018-01-06T04:39:52.447Z,99123
2018-01-06T04:40:51.421Z,99127
2018-01-06T04:41:51.522Z,99132
2018-01-06T04:42:51.561Z,99126
2018-01-06T04:43:52.629Z,99129
2018-01-06T04:44:52.720Z,99122
2018-01-06T04:45:51.670Z,99134
2018-01-06T04:46:52.683Z,99137
2018-01-06T04:47:51.720Z,99144
2018-01-06T04:48:52.764Z,99145
2018-01-06T04:49:51.978Z,99141
2018-01-06T04:50:52.862Z,99149
2018-01-06T04:52:52.044Z,99151
2018-01-06T04:53:53.042Z,99153
2018-01-06T04:54:51.983Z,99151
2018-01-06T04:55:52.070Z,99156
2018-01-06T04:56:53.116Z,99152
2018-01-06T04:57:53.128Z,99153
2018-01-06T04:58:52.334Z,99146
2018-01-06T04:59:53.239Z,99149
2018-01-06T05:00:53.316Z,99146
2018-01-06T05:01:53.525Z,99149
2018-01-06T05:02:52.508Z,99153
2018-01-06T05:03:52.553Z,99151
2018-01-06T05:04:53.532Z,99158
2018-01-06T05:05:52.603Z,99160
2018-01-06T05:06:52.699Z,99159
2018-01-06T05:07:53.726Z,99152
2018-01-06T05:08:52.861Z,99148
2018-01-06T05:09:54.018Z,99156
2018-01-06T05:10:53.918Z,99156
2018-01-06T05:11:53.098Z,99158
2018-01-06T05:12:54.021Z,99164
2018-01-06T05:13:54.217Z,99160
2018-01-06T05:14:54.114Z,99155
2018-01-06T05:15:53.218Z,99174
2018-01-06T05:16:53.263Z,99176
2018-01-06T05:17:54.321Z,99174
2018-01-06T05:18:53.431Z,99184
2018-01-06T05:19:54.597Z,99179
2018-01-06T05:20:54.708Z,99176
2018-01-06T05:21:53.745Z,99183
2018-01-06T05:22:53.821Z,99177
2018-01-06T05:23:53.875Z,99179
2018-01-06T05:24:54.955Z,99170
2018-01-06T05:25:53.950Z,99180
2018-01-06T05:26:55.040Z,99185
2018-01-06T05:27:55.059Z,99178
2018-01-06T05:28:55.031Z,99195
2018-01-06T05:29:54.220Z,99197
2018-01-06T05:30:54.255Z,99199
2018-01-06T05:31:54.212Z,99203
2018-01-06T05:32:54.257Z,99203
2018-01-06T05:33:55.409Z,99204
2018-01-06T05:34:55.468Z,99194
2018-01-06T05:35:55.550Z,99207
2018-01-06T05:36:54.589Z,99207
2018-01-06T05:37:55.863Z,99201
2018-01-06T05:38:54.671Z,99206
2018-01-06T05:39:55.724Z,99210
2018-01-06T05:40:54.777Z,99213
2018-01-06T05:41:54.787Z,99214
2018-01-06T05:42:55.794Z,99218
2018-01-06T05:43:55.684Z,99215
2018-01-06T05:44:54.892Z,99215
2018-01-06T05:45:54.862Z,99212
2018-01-06T05:46:54.901Z,99216
2018-01-06T05:47:54.936Z,99212
2018-01-06T05:48:54.968Z,99206
2018-01-06T05:49:55.060Z,99212
2018-01-06T05:50:55.116Z,99214
2018-01-06T05:51:56.271Z,99215
2018-01-06T05:52:55.209Z,99217
2018-01-06T05:53:55.382Z,99212
2018-01-06T05:54:56.397Z,99219
2018-01-06T05:55:55.322Z,99219
2018-01-06T05:56:55.374Z,99223
2018-01-06T05:57:55.574Z,99220
2018-01-06T05:58:55.481Z,99213
2018-01-06T05:59:56.645Z,99220
2018-01-06T06:00:55.684Z,99224
2018-01-06T06:01:55.637Z,99224
2018-01-06T06:02:56.758Z,99222
2018-01-06T06:03:56.711Z,99211
2018-01-06T06:04:56.718Z,99222
2018-01-06T06:05:56.875Z,99221
2018-01-06T06:06:55.912Z,99221
2018-01-06T06:07:57.005Z,99219
2018-01-06T06:08:56.995Z,99219
2018-01-06T06:09:57.092Z,99214
2018-01-06T06:10:56.156Z,99213
2018-01-06T06:11:56.201Z,99217
2018-01-06T06:12:56.192Z,99222
2018-01-06T06:13:57.261Z,99225
2018-01-06T06:14:56.394Z,99233
2018-01-06T06:15:56.341Z,99234
2018-01-06T06:16:57.427Z,99232
2018-01-06T06:17:56.443Z,99232
2018-01-06T06:18:56.494Z,99231
2018-01-06T06:19:57.634Z,99229
2018-01-06T06:20:56.735Z,99228
2018-01-06T06:21:56.688Z,99226
2018-01-06T06:22:57.785Z,99217
2018-01-06T06:23:57.882Z,99222
2018-01-06T06:24:56.838Z,99229
2018-01-06T06:25:56.938Z,99234
2018-01-06T06:26:57.860Z,99229
2018-01-06T06:27:56.912Z,99224
2018-01-06T06:28:56.928Z,99232
2018-01-06T06:29:57.105Z,99232
2018-01-06T06:30:57.112Z,99225
2018-01-06T06:31:57.249Z,99230
2018-01-06T06:32:57.149Z,99228
2018-01-06T06:33:58.231Z,99229
2018-01-06T06:34:57.226Z,99232
2018-01-06T06:35:57.214Z,99222
2018-01-06T06:36:57.301Z,99233
2018-01-06T06:37:58.358Z,99233
2018-01-06T06:38:57.282Z,99233
2018-01-06T06:39:57.335Z,99235
2018-01-06T06:40:57.369Z,99233
2018-01-06T06:41:58.574Z,99241
2018-01-06T06:42:57.506Z,99242
2018-01-06T06:43:58.638Z,99247
2018-01-06T06:44:58.577Z,99248
2018-01-06T06:45:58.751Z,99248
2018-01-06T06:46:58.651Z,99246
2018-01-06T06:47:57.768Z,99244
2018-01-06T06:48:57.975Z,99244
2018-01-06T06:49:57.918Z,99236
2018-01-06T06:50:57.978Z,99243
2018-01-06T06:51:58.155Z,99248
2018-01-06T06:52:59.208Z,99245
2018-01-06T06:53:58.119Z,99252
2018-01-06T06:54:59.096Z,99255
2018-01-06T06:55:58.270Z,99260
2018-01-06T06:56:58.194Z,99258
2018-01-06T06:57:58.372Z,99251
2018-01-06T06:58:59.404Z,99253
2018-01-06T06:59:58.387Z,99251
2018-01-06T07:00:59.528Z,99254
2018-01-06T07:01:58.544Z,99254
2018-01-06T07:02:58.635Z,99255
2018-01-06T07:03:59.734Z,99262
2018-01-06T07:04:59.674Z,99257
2018-01-06T07:05:59.858Z,99268
2018-01-06T07:06:59.867Z,99265
2018-01-06T07:07:58.886Z,99266
2018-01-06T07:08:58.951Z,99265
2018-01-06T07:09:59.962Z,99273
2018-01-06T07:10:59.065Z,99269
2018-01-06T07:12:00.112Z,99268
2018-01-06T07:12:59.212Z,99272
2018-01-06T07:13:59.177Z,99274
2018-01-06T07:14:59.269Z,99274
2018-01-06T07:15:59.331Z,99281
2018-01-06T07:17:00.436Z,99284
2018-01-06T07:18:00.543Z,99275
2018-01-06T07:18:59.574Z,99278
2018-01-06T07:20:00.578Z,99284
2018-01-06T07:20:59.584Z,99287
2018-01-06T07:22:00.624Z,99290
2018-01-06T07:22:59.856Z,99291
2018-01-06T07:24:00.811Z,99282
2018-01-06T07:24:59.798Z,99294
2018-01-06T07:25:59.887Z,99295
2018-01-06T07:27:00.854Z,99295
2018-01-06T07:28:01.003Z,99294
2018-01-06T07:29:00.991Z,99290
2018-01-06T07:30:01.217Z,99287
2018-01-06T07:31:00.207Z,99285
2018-01-06T07:32:00.258Z,99281
2018-01-06T07:33:00.344Z,99277
2018-01-06T07:34:01.331Z,99288
2018-01-06T07:35:01.541Z,99279
2018-01-06T07:36:01.565Z,99281
2018-01-06T07:37:01.605Z,99294
2018-01-06T07:38:00.570Z,99289
2018-01-06T07:39:01.539Z,99298
2018-01-06T07:40:00.646Z,99293
2018-01-06T07:41:01.768Z,99296
2018-01-06T07:42:01.668Z,99292
2018-01-06T07:43:01.820Z,99292
2018-01-06T07:44:00.802Z,99293
2018-01-06T07:45:01.872Z,99300
2018-01-06T07:46:00.869Z,99300
2018-01-06T07:47:00.929Z,99303
2018-01-06T07:48:01.071Z,99308
2018-01-06T07:49:01.141Z,99309
2018-01-06T07:50:01.124Z,99313
2018-01-06T07:51:02.192Z,99312
2018-01-06T07:52:02.241Z,99314
2018-01-06T07:53:01.427Z,99318
2018-01-06T07:54:01.403Z,99321
2018-01-06T07:55:01.497Z,99317
2018-01-06T07:56:01.525Z,99320
2018-01-06T07:57:01.768Z,99321
2018-01-06T07:58:03.760Z,99320
2018-01-06T07:59:02.853Z,99318
2018-01-06T08:00:01.955Z,99322
2018-01-06T08:01:01.931Z,99320
2018-01-06T08:02:02.978Z,99321
2018-01-06T08:03:03.141Z,99319
2018-01-06T08:04:02.231Z,99320
2018-01-06T08:05:02.135Z,99314
2018-01-06T08:06:02.271Z,99315
2018-01-06T08:07:03.284Z,99323
2018-01-06T08:08:02.223Z,99325
2018-01-06T08:09:02.191Z,99317
2018-01-06T08:10:02.322Z,99332
2018-01-06T08:11:02.240Z,99330
2018-01-06T08:12:03.362Z,99334
2018-01-06T08:13:02.322Z,99332
2018-01-06T08:14:02.380Z,99337
2018-01-06T08:15:03.505Z,99339
2018-01-06T08:16:02.478Z,99334
2018-01-06T08:17:03.636Z,99333
2018-01-06T08:18:02.565Z,99338
2018-01-06T08:19:03.654Z,99338
2018-01-06T08:20:02.757Z,99342
2018-01-06T08:21:03.677Z,99345
2018-01-06T08:22:02.849Z,99350
2018-01-06T08:23:03.948Z,99348
2018-01-06T08:24:03.011Z,99351
2018-01-06T08:25:03.105Z,99345
2018-01-06T08:26:04.121Z,99348
2018-01-06T08:27:04.094Z,99349
2018-01-06T08:28:03.210Z,99352
2018-01-06T08:29:04.178Z,99346
2018-01-06T08:30:04.244Z,99354
2018-01-06T08:31:03.282Z,99358
2018-01-06T08:32:03.344Z,99360
2018-01-06T08:33:04.389Z,99368
2018-01-06T08:34:03.306Z,99369
2018-01-06T08:35:03.447Z,99374
2018-01-06T08:36:03.413Z,99370
2018-01-06T08:37:04.534Z,99376
2018-01-06T08:38:03.639Z,99377
2018-01-06T08:39:04.690Z,99373
2018-01-06T08:40:03.775Z,99378
2018-01-06T08:41:03.687Z,99381
2018-01-06T08:42:04.879Z,99371
2018-01-06T08:43:04.954Z,99381
2018-01-06T08:44:04.023Z,99383
2018-01-06T08:45:05.021Z,99379
2018-01-06T08:46:03.946Z,99388
2018-01-06T08:47:03.973Z,99385
2018-01-06T08:48:03.979Z,99383
2018-01-06T08:49:04.073Z,99387
2018-01-06T08:50:04.051Z,99388
2018-01-06T08:51:04.156Z,99386
2018-01-06T08:52:05.215Z,99391
2018-01-06T08:53:05.348Z,99391
2018-01-06T08:54:04.445Z,99391
2018-01-06T08:55:05.451Z,99390
2018-01-06T08:56:04.577Z,99385
2018-01-06T08:57:05.475Z,99389
2018-01-06T08:58:04.698Z,99388
2018-01-06T08:59:05.564Z,99387
2018-01-06T09:00:04.702Z,99391
2018-01-06T09:01:04.865Z,99387
2018-01-06T09:02:04.808Z,99398
2018-01-06T09:03:05.893Z,99396
2018-01-06T09:04:04.916Z,99403
2018-01-06T09:05:06.029Z,99399
2018-01-06T09:06:04.941Z,99394
2018-01-06T09:07:05.087Z,99401
2018-01-06T09:08:06.167Z,99406
2018-01-06T09:09:06.226Z,99407
2018-01-06T09:10:05.266Z,99411
2018-01-06T09:11:05.385Z,99414
2018-01-06T09:12:06.403Z,99416
2018-01-06T09:13:05.419Z,99417
2018-01-06T09:14:06.425Z,99420
2018-01-06T09:15:05.422Z,99419
2018-01-06T09:16:05.474Z,99416
2018-01-06T09:17:05.643Z,99425
2018-01-06T09:18:05.647Z,99427
2018-01-06T09:19:06.696Z,99420
2018-01-06T09:20:05.683Z,99431
2018-01-06T09:21:05.858Z,99431
2018-01-06T09:22:06.865Z,99435
2018-01-06T09:23:05.883Z,99432
2018-01-06T09:24:06.024Z,99436
2018-01-06T09:25:07.111Z,99440
2018-01-06T09:26:07.147Z,99441
2018-01-06T09:27:06.239Z,99441
2018-01-06T09:28:06.298Z,99441
2018-01-06T09:29:06.738Z,99445
2018-01-06T09:30:06.396Z,99450
2018-01-06T09:31:06.340Z,99446
2018-01-06T09:32:06.414Z,99456
2018-01-06T09:33:06.584Z,99454
2018-01-06T09:34:06.533Z,99456
2018-01-06T09:35:06.795Z,99458
2018-01-06T09:36:06.621Z,99459
2018-01-06T09:37:06.651Z,99460
2018-01-06T09:38:06.829Z,99451
2018-01-06T09:39:06.883Z,99459
2018-01-06T09:40:06.906Z,99459
2018-01-06T09:41:06.844Z,99460
2018-01-06T09:42:06.914Z,99460
2018-01-06T09:43:06.967Z,99462
2018-01-06T09:44:08.052Z,99466
2018-01-06T09:45:07.948Z,99457
2018-01-06T09:46:07.185Z,99463
2018-01-06T09:47:08.222Z,99466
2018-01-06T09:48:07.119Z,99462
2018-01-06T09:49:07.323Z,99463
2018-01-06T09:50:07.246Z,99463
2018-01-06T09:51:07.465Z,99466
2018-01-06T09:52:07.505Z,99463
2018-01-06T09:53:08.527Z,99460
2018-01-06T09:54:08.466Z,99462
2018-01-06T09:55:08.602Z,99465
2018-01-06T09:56:07.652Z,99469
2018-01-06T09:57:07.652Z,99469
2018-01-06T09:58:08.834Z,99469
2018-01-06T09:59:07.771Z,99469
2018-01-06T10:00:07.903Z,99468
2018-01-06T10:01:07.905Z,99473
2018-01-06T10:02:09.041Z,99476
2018-01-06T10:03:08.961Z,99472
2018-01-06T10:04:08.146Z,99480
2018-01-06T10:05:08.088Z,99481
2018-01-06T10:06:09.242Z,99479
2018-01-06T10:07:08.174Z,99482
2018-01-06T10:08:09.336Z,99479
2018-01-06T10:09:08.281Z,99475
2018-01-06T10:10:08.476Z,99471
2018-01-06T10:11:09.504Z,99468
2018-01-06T10:12:08.420Z,99465
2018-01-06T10:13:09.601Z,99473
2018-01-06T10:14:08.547Z,99480
2018-01-06T10:15:09.644Z,99481
2018-01-06T10:16:08.633Z,99488
2018-01-06T10:17:08.709Z,99486
2018-01-06T10:18:08.741Z,99490
2018-01-06T10:19:08.637Z,99491
2018-01-06T10:20:08.739Z,99494
2018-01-06T10:21:08.824Z,99493
2018-01-06T10:22:08.859Z,99499
2018-01-06T10:23:09.915Z,99498
2018-01-06T10:24:09.060Z,99498
2018-01-06T10:25:10.064Z,99492
2018-01-06T10:26:08.990Z,99498
2018-01-06T10:27:10.048Z,99497
2018-01-06T10:28:10.170Z,99497
2018-01-06T10:29:10.088Z,99497
2018-01-06T10:30:10.312Z,99494
2018-01-06T10:31:09.412Z,99501
2018-01-06T10:32:09.289Z,99496
2018-01-06T10:33:10.447Z,99498
2018-01-06T10:34:10.310Z,99497
2018-01-06T10:35:10.341Z,99489
2018-01-06T10:36:09.399Z,99493
2018-01-06T10:37:09.447Z,99489
2018-01-06T10:38:09.537Z,99492
2018-01-06T10:39:09.577Z,99490
2018-01-06T10:40:10.640Z,99492
2018-01-06T10:41:09.647Z,99490
2018-01-06T10:42:09.752Z,99489
2018-01-06T10:43:10.756Z,99487
2018-01-06T10:44:09.825Z,99493
2018-01-06T10:45:09.851Z,99487
2018-01-06T10:46:10.847Z,99493
2018-01-06T10:47:09.925Z,99493
2018-01-06T10:48:11.026Z,99494
2018-01-06T10:49:10.016Z,99496
2018-01-06T10:50:10.072Z,99498
2018-01-06T10:51:10.184Z,99500
2018-01-06T10:52:10.149Z,99502
2018-01-06T10:53:10.203Z,99502
2018-01-06T10:54:10.188Z,99505
2018-01-06T10:55:11.331Z,99506
2018-01-06T10:56:11.286Z,99500
2018-01-06T10:57:11.448Z,99498
2018-01-06T10:58:10.545Z,99507
2018-01-06T10:59:10.562Z,99501
2018-01-06T11:00:10.590Z,99506
2018-01-06T11:01:10.523Z,99498
2018-01-06T11:02:11.649Z,99506
2018-01-06T11:03:11.665Z,99512
2018-01-06T11:04:11.769Z,99514
2018-01-06T11:05:11.758Z,99507
2018-01-06T11:06:11.797Z,99510
2018-01-06T11:07:11.807Z,99514
2018-01-06T11:08:10.905Z,99511
2018-01-06T11:09:11.929Z,99515
2018-01-06T11:10:10.859Z,99516
2018-01-06T11:11:10.965Z,99522
2018-01-06T11:12:10.967Z,99521
2018-01-06T11:13:12.155Z,99522
2018-01-06T11:14:11.164Z,99515
2018-01-06T11:15:11.228Z,99524
2018-01-06T11:16:11.245Z,99524
2018-01-06T11:17:11.147Z,99522
2018-01-06T11:18:11.220Z,99521
2018-01-06T11:19:12.322Z,99512
2018-01-06T11:20:12.221Z,99517
2018-01-06T11:21:11.375Z,99515
2018-01-06T11:22:11.300Z,99522
2018-01-06T11:23:11.332Z,99518
2018-01-06T11:24:11.369Z,99528
2018-01-06T11:25:12.379Z,99519
2018-01-06T11:26:11.540Z,99526
2018-01-06T11:27:12.540Z,99522
2018-01-06T11:28:11.499Z,99532
2018-01-06T11:29:11.583Z,99531
2018-01-06T11:30:11.753Z,99533
2018-01-06T11:31:11.720Z,99532
2018-01-06T11:32:11.838Z,99533
2018-01-06T11:33:12.930Z,99528
2018-01-06T11:34:12.964Z,99539
2018-01-06T11:35:12.889Z,99538
2018-01-06T11:36:12.070Z,99539
2018-01-06T11:37:12.096Z,99533
2018-01-06T11:38:12.142Z,99539
2018-01-06T11:39:13.147Z,99532
2018-01-06T11:40:13.174Z,99538
2018-01-06T11:41:12.187Z,99535
2018-01-06T11:42:12.262Z,99540
2018-01-06T11:43:12.422Z,99542
2018-01-06T11:44:13.351Z,99547
2018-01-06T11:45:13.510Z,99543
2018-01-06T11:46:12.608Z,99543
2018-01-06T11:47:12.667Z,99541
2018-01-06T11:48:12.748Z,99542
2018-01-06T11:49:12.803Z,99533
2018-01-06T11:50:12.742Z,99543
2018-01-06T11:51:13.853Z,99530
2018-01-06T11:52:13.803Z,99539
2018-01-06T11:53:12.864Z,99532
2018-01-06T11:54:13.988Z,99544
2018-01-06T11:55:12.902Z,99545
2018-01-06T11:56:12.920Z,99537
2018-01-06T11:57:14.012Z,99536
2018-01-06T11:58:13.062Z,99542
2018-01-06T11:59:14.088Z,99532
2018-01-06T12:00:13.094Z,99541
2018-01-06T12:01:14.096Z,99544
2018-01-06T12:02:14.179Z,99542
2018-01-06T12:03:13.235Z,99540
2018-01-06T12:04:14.270Z,99534
2018-01-06T12:05:13.475Z,99540
2018-01-06T12:06:14.487Z,99542
2018-01-06T12:07:13.431Z,99542
2018-01-06T12:08:13.559Z,99543
2018-01-06T12:09:14.433Z,99541
2018-01-06T12:10:14.518Z,99544
2018-01-06T12:11:14.710Z,99542
2018-01-06T12:12:13.655Z,99547
2018-01-06T12:13:14.770Z,99548
2018-01-06T12:14:13.854Z,99542
2018-01-06T12:15:13.774Z,99547
2018-01-06T12:16:14.958Z,99547
2018-01-06T12:17:13.884Z,99545
2018-01-06T12:18:14.033Z,99548
2018-01-06T12:19:14.940Z,99546
2018-01-06T12:20:15.050Z,99548
2018-01-06T12:21:15.171Z,99549
2018-01-06T12:22:14.161Z,99541
2018-01-06T12:23:15.315Z,99551
2018-01-06T12:24:15.401Z,99552
2018-01-06T12:25:14.431Z,99550
2018-01-06T12:26:14.342Z,99552
2018-01-06T12:27:14.559Z,99558
2018-01-06T12:28:14.486Z,99558
2018-01-06T12:29:15.544Z,99557
2018-01-06T12:30:15.648Z,99554
2018-01-06T12:31:14.631Z,99554
2018-01-06T12:32:15.746Z,99557
2018-01-06T12:33:14.756Z,99552
2018-01-06T12:34:15.743Z,99557
2018-01-06T12:35:15.849Z,99559
2018-01-06T12:36:14.814Z,99559
2018-01-06T12:37:15.993Z,99559
2018-01-06T12:38:14.975Z,99563
2018-01-06T12:39:16.086Z,99559
2018-01-06T12:40:15.012Z,99566
2018-01-06T12:41:15.124Z,99566
2018-01-06T12:42:16.035Z,99568
2018-01-06T12:43:15.125Z,99567
2018-01-06T12:44:15.155Z,99567
2018-01-06T12:45:16.190Z,99569
2018-01-06T12:46:15.205Z,99570
2018-01-06T12:47:15.299Z,99567
2018-01-06T12:48:15.425Z,99566
2018-01-06T12:49:16.469Z,99557
2018-01-06T12:50:15.432Z,99567
2018-01-06T12:51:15.477Z,99560
2018-01-06T12:52:15.543Z,99568
2018-01-06T12:53:15.506Z,99572
2018-01-06T12:54:15.547Z,99571
2018-01-06T12:55:15.661Z,99574
2018-01-06T12:56:15.628Z,99575
2018-01-06T12:57:16.748Z,99570
2018-01-06T12:58:15.715Z,99582
2018-01-06T12:59:15.762Z,99585
2018-01-06T13:00:15.953Z,99575
2018-01-06T13:01:16.937Z,99570
2018-01-06T13:02:15.913Z,99575
2018-01-06T13:03:15.951Z,99576
2018-01-06T13:04:17.029Z,99582
2018-01-06T13:05:17.122Z,99582
2018-01-06T13:06:16.115Z,99586
2018-01-06T13:07:16.132Z,99582
2018-01-06T13:08:16.207Z,99574
2018-01-06T13:09:17.231Z,99581
2018-01-06T13:10:17.328Z,99584
2018-01-06T13:11:16.282Z,99588
2018-01-06T13:12:17.321Z,99590
2018-01-06T13:13:16.488Z,99589
2018-01-06T13:14:16.443Z,99589
2018-01-06T13:15:16.562Z,99588
2018-01-06T13:16:17.547Z,99583
2018-01-06T13:17:16.471Z,99593
2018-01-06T13:18:16.490Z,99593
2018-01-06T13:19:16.550Z,99596
2018-01-06T13:20:16.632Z,99596
2018-01-06T13:21:17.790Z,99600
2018-01-06T13:22:16.729Z,99599
2018-01-06T13:23:16.851Z,99601
2018-01-06T13:24:16.879Z,99604
2018-01-06T13:25:16.838Z,99599
2018-01-06T13:26:16.877Z,99608
2018-01-06T13:27:17.069Z,99607
2018-01-06T13:28:17.970Z,99601
2018-01-06T13:29:17.087Z,99604
2018-01-06T13:30:17.137Z,99609
2018-01-06T13:31:17.236Z,99609
2018-01-06T13:32:18.347Z,99607
2018-01-06T13:33:17.288Z,99607
2018-01-06T13:34:17.318Z,99614
2018-01-06T13:35:17.405Z,99615